Weather observations for the past three days for
Prinses Juliana
| Date | Time (ast) | Wind (mph) | Vis. (mi.) | Weather | Sky Cond. | Temperature (ºF) | Relative Humidity | Wind Chill (°F) | Heat Index (°F) | Pressure | Precipitation (in) | ||||||
|---|---|---|---|---|---|---|---|---|---|---|---|---|---|---|---|---|---|
| Air | Dwpt | 6 hour | altimeter (in) | sea level (mb) | 1 hr | 3 hr | 6 hr | ||||||||||
| Max. | Min. | ||||||||||||||||
| 04 | 14:00 | E 14 | 0.00 | Showers in Vicinity | FEW016 BKN035 | 80.6 | 75.2 | 84% | 86 | 0 | 0.0 | ||||||
| 04 | 13:00 | E 12 | 0.00 | Showers in Vicinity | SCT016 | 87.8 | 77 | 70% | 100 | 0 | 0.0 | ||||||
| 04 | 12:00 | E 12 | 0.00 | Partly Cloudy | SCT019 | 87.8 | 77 | 70% | 100 | 0 | 0.0 | ||||||
| 04 | 11:00 | E 14 | 0.00 | Partly Cloudy | SCT017 | 86 | 77 | 75% | 97 | 0 | 0.0 | ||||||
| 04 | 10:00 | E 13 | 0.00 | Showers in Vicinity | BKN015 | 86 | 77 | 75% | 97 | 0 | 0.0 | ||||||
| 04 | 09:00 | E 13 | 0.00 | Light Rain | SCT015 SCT030 | 82.4 | 75.2 | 79% | 89 | 0 | 0.0 | ||||||
| 04 | 08:00 | E 9 | 0.00 | Showers in Vicinity | BKN015 | 82.4 | 75.2 | 79% | 89 | 0 | 0.0 | ||||||
| 04 | 07:00 | E 10 | 0.00 | A Few Clouds | FEW015 | 80.6 | 71.6 | 74% | 85 | 0 | 0.0 | ||||||
| 04 | 06:00 | E 10 | 0.00 | A Few Clouds | FEW016 | 78.8 | 71.6 | 79% | 82 | 0 | 0.0 | ||||||
| 04 | 05:00 | E 9 | 0.00 | A Few Clouds | FEW018 | 78.8 | 71.6 | 79% | 82 | 0 | 0.0 | ||||||
| 04 | 04:00 | E 8 | 0.00 | A Few Clouds | FEW016 | 78.8 | 71.6 | 79% | 82 | 0 | 0.0 | ||||||
| 04 | 03:00 | E 9 | 0.00 | A Few Clouds | FEW016 | 80.6 | 71.6 | 74% | 85 | 0 | 0.0 | ||||||
| 04 | 02:00 | E 12 | 0.00 | Partly Cloudy | SCT016 | 80.6 | 71.6 | 74% | 85 | 0 | 0.0 | ||||||
| 04 | 01:00 | E 9 | 0.00 | A Few Clouds | FEW016 | 80.6 | 71.6 | 74% | 85 | 0 | 0.0 | ||||||
| 04 | 00:00 | E 12 | 0.00 | A Few Clouds | FEW016 | 80.6 | 71.6 | 74% | 85 | 0 | 0.0 | ||||||
| 03 | 23:00 | E 10 | 0.00 | A Few Clouds | FEW016 | 80.6 | 71.6 | 74% | 85 | 0 | 0.0 | ||||||
| 03 | 22:00 | E 12 | 0.00 | Mostly Cloudy | BKN016 | 80.6 | 73.4 | 79% | 85 | 0 | 0.0 | ||||||
| 03 | 21:00 | E 10 | 0.00 | Mostly Cloudy | BKN016 | 80.6 | 75.2 | 84% | 86 | 0 | 0.0 | ||||||
| 03 | 20:00 | E 10 | 0.00 | Mostly Cloudy | BKN016 | 80.6 | 75.2 | 84% | 86 | 0 | 0.0 | ||||||
| 03 | 19:00 | E 10 | 0.00 | Partly Cloudy | SCT016 | 80.6 | 75.2 | 84% | 86 | 0 | 0.0 | ||||||
| 03 | 18:00 | E 10 | 0.00 | Partly Cloudy | SCT016 | 82.4 | 73.4 | 74% | 88 | 0 | 0.0 | ||||||
| 03 | 17:00 | E 12 | 0.00 | Partly Cloudy | SCT018 | 84.2 | 75.2 | 74% | 92 | 0 | 0.0 | ||||||
| 03 | 16:00 | E 12 | 0.00 | Partly Cloudy | SCT018 | 86 | 75.2 | 70% | 95 | 0 | 0.0 | ||||||
| 03 | 15:00 | E 10 | 0.00 | Partly Cloudy | SCT020 | 86 | 77 | 75% | 97 | 0 | 0.0 | ||||||
| 03 | 14:00 | E 10 | 0.00 | Partly Cloudy | SCT020 | 86 | 75.2 | 70% | 95 | 0 | 0.0 | ||||||
| 03 | 13:00 | E 13 | 0.00 | A Few Clouds | FEW020 | 86 | 71.6 | 62% | 92 | 0 | 0.0 | ||||||
| 03 | 12:00 | E 9 | 0.00 | A Few Clouds | FEW020 | 86 | 71.6 | 62% | 92 | 0 | 0.0 | ||||||
| 03 | 11:00 | E 10 | 0.00 | A Few Clouds | FEW020 | 86 | 75.2 | 70% | 95 | 0 | 0.0 | ||||||
| 03 | 10:00 | E 12 | 0.00 | A Few Clouds | FEW018 | 86 | 75.2 | 70% | 95 | 0 | 0.0 | ||||||
| 03 | 09:00 | E 12 | 0.00 | A Few Clouds | FEW018 | 84.2 | 75.2 | 74% | 92 | 0 | 0.0 | ||||||
| 03 | 08:00 | E 10 | 0.00 | A Few Clouds | FEW020 | 82.4 | 73.4 | 74% | 88 | 0 | 0.0 | ||||||
| 03 | 07:00 | E 10 | 0.00 | A Few Clouds | FEW018 | 80.6 | 73.4 | 79% | 85 | 0 | 0.0 | ||||||
| 03 | 06:00 | E 9 | 0.00 | A Few Clouds | FEW016 | 78.8 | 73.4 | 84% | 82 | 0 | 0.0 | ||||||
| 03 | 05:00 | E 8 | 0.00 | A Few Clouds | FEW016 | 78.8 | 73.4 | 84% | 82 | 0 | 0.0 | ||||||
| 03 | 04:00 | NE 8 | 0.00 | Partly Cloudy | SCT016 | 78.8 | 73.4 | 84% | 82 | 0 | 0.0 | ||||||
| 03 | 03:00 | E 8 | 0.00 | A Few Clouds | FEW016 | 78.8 | 73.4 | 84% | 82 | 0 | 0.0 | ||||||
| 03 | 02:00 | E 7 | 0.00 | NULL | NULL | 78.8 | 73.4 | 84% | 82 | 0 | 0.0 | ||||||
| 03 | 01:00 | E 8 | 0.00 | A Few Clouds | FEW016 | 78.8 | 73.4 | 84% | 82 | 0 | 0.0 | ||||||
| 03 | 00:00 | E 9 | 0.00 | Partly Cloudy | SCT018 | 80.6 | 73.4 | 79% | 85 | 0 | 0.0 | ||||||
| 02 | 23:00 | E 9 | 0.00 | A Few Clouds | FEW018 | 80.6 | 73.4 | 79% | 85 | 0 | 0.0 | ||||||
| 02 | 22:00 | E 8 | 0.00 | A Few Clouds | FEW018 | 80.6 | 69.8 | 70% | 84 | 0 | 0.0 | ||||||
| 02 | 21:00 | E 8 | 0.00 | A Few Clouds | FEW016 | 80.6 | 71.6 | 74% | 85 | 0 | 0.0 | ||||||
| 02 | 20:00 | E 9 | 0.00 | A Few Clouds | FEW018 | 80.6 | 71.6 | 74% | 85 | 0 | 0.0 | ||||||
| 02 | 19:00 | E 10 | 0.00 | A Few Clouds | FEW018 | 80.6 | 69.8 | 70% | 84 | 0 | 0.0 | ||||||
| 02 | 18:00 | E 12 | 0.00 | A Few Clouds | FEW018 | 82.4 | 71.6 | 70% | 87 | 0 | 0.0 | ||||||
| 02 | 17:00 | E 12 | 0.00 | A Few Clouds | FEW018 | 84.2 | 71.6 | 66% | 90 | 0 | 0.0 | ||||||
| 02 | 16:00 | SE 12 | 0.00 | A Few Clouds | FEW018 | 86 | 69.8 | 59% | 91 | 0 | 0.0 | ||||||
| 02 | 15:00 | SE 13 | 0.00 | A Few Clouds | FEW020 | 86 | 69.8 | 59% | 91 | 0 | 0.0 | ||||||
| 02 | 14:00 | E 10 | 0.00 | A Few Clouds | FEW020 | 87.8 | 66.2 | 49% | 90 | 0 | 0.0 | ||||||
| 02 | 12:00 | E 12 | 0.00 | A Few Clouds | FEW020 | 87.8 | 73.4 | 62% | 96 | 0 | 0.0 | ||||||
| 02 | 11:00 | E 13 | 0.00 | A Few Clouds | FEW020 | 86 | 75.2 | 70% | 95 | 0 | 0.0 | ||||||
| 02 | 10:00 | E 13 | 0.00 | Partly Cloudy | SCT016 | 86 | 75.2 | 70% | 95 | 0 | 0.0 | ||||||
| 02 | 08:00 | SE 8 | 0.00 | A Few Clouds | FEW016 | 82.4 | 73.4 | 74% | 88 | 0 | 0.0 | ||||||
| 02 | 07:00 | E 9 | 0.00 | A Few Clouds | FEW016 | 80.6 | 73.4 | 79% | 85 | 0 | 0.0 | ||||||
| 02 | 06:00 | E 9 | 0.00 | A Few Clouds | FEW016 | 80.6 | 73.4 | 79% | 85 | 0 | 0.0 | ||||||
| 02 | 05:00 | E 8 | 0.00 | Partly Cloudy | SCT016 | 80.6 | 75.2 | 84% | 86 | 0 | 0.0 | ||||||
| 02 | 03:00 | E 7 | 0.00 | A Few Clouds | FEW016 | 78.8 | 73.4 | 84% | 82 | 0 | 0.0 | ||||||
| 02 | 02:00 | E 8 | 0.00 | A Few Clouds | FEW016 | 78.8 | 73.4 | 84% | 82 | 0 | 0.0 | ||||||
| 02 | 01:00 | E 9 | 0.00 | A Few Clouds | FEW016 | 78.8 | 73.4 | 84% | 82 | 0 | 0.0 | ||||||
| 02 | 00:00 | E 9 | 0.00 | A Few Clouds | FEW016 | 80.6 | 73.4 | 79% | 85 | 0 | 0.0 | ||||||
| 01 | 23:00 | E 10 | 0.00 | Partly Cloudy | FEW016 SCT035 | 80.6 | 75.2 | 84% | 86 | 0 | 0.0 | ||||||
| 01 | 22:00 | E 9 | 0.00 | Partly Cloudy | FEW016 SCT035 | 80.6 | 75.2 | 84% | 86 | 0 | 0.0 | ||||||
| 01 | 21:00 | E 9 | 0.00 | Partly Cloudy | FEW016 SCT035 | 80.6 | 73.4 | 79% | 85 | 0 | 0.0 | ||||||
| 01 | 20:00 | E 9 | 0.00 | Mostly Cloudy | FEW016 BKN035 | 80.6 | 75.2 | 84% | 86 | 0 | 0.0 | ||||||
| 01 | 19:00 | E 8 | 0.00 | Partly Cloudy | FEW017 SCT035 | 80.6 | 73.4 | 79% | 85 | 0 | 0.0 | ||||||
| 01 | 18:00 | E 8 | 0.00 | A Few Clouds | FEW017 | 82.4 | 75.2 | 79% | 89 | 0 | 0.0 | ||||||
| 01 | 17:00 | E 6 | 0.00 | A Few Clouds | FEW018 | 82.4 | 73.4 | 74% | 88 | 0 | 0.0 | ||||||
| 01 | 16:00 | SE 7 | 0.00 | A Few Clouds | FEW018 | 84.2 | 73.4 | 70% | 91 | 0 | 0.0 | ||||||
| Date | Time (ast) | Wind (mph) | Vis. (mi.) | Weather | Sky Cond. | Air | Dwpt | Max. | Min. | Relative Humidity | Wind Chill (°F) | Heat Index (°F) | altimeter (in) | sea level (mb) | 1 hr | 3 hr | 6 hr |
| 6 hour | |||||||||||||||||
| Temperature (ºF) | Pressure | Precipitation (in) | |||||||||||||||